createdAt,value
2022-07-29T00:01:00.339Z,102099.91
2022-07-29T00:03:26.846Z,102099.25
2022-07-29T00:05:54.125Z,102101.09
2022-07-29T00:08:21.023Z,102100.34
2022-07-29T00:10:47.561Z,102092.31
2022-07-29T00:13:14.182Z,102088.88
2022-07-29T00:15:40.745Z,102091.03
2022-07-29T00:18:07.295Z,102087.19
2022-07-29T00:20:33.762Z,102082.03
2022-07-29T00:23:00.478Z,102088.34
2022-07-29T00:25:27.114Z,102083.75
2022-07-29T00:27:53.610Z,102084.72
2022-07-29T00:30:20.291Z,102072.53
2022-07-29T00:32:46.782Z,102074.00
2022-07-29T00:35:31.567Z,102072.31
2022-07-29T00:38:02.154Z,102058.84
2022-07-29T00:40:28.775Z,102054.66
2022-07-29T00:42:55.468Z,102049.84
2022-07-29T00:45:23.071Z,102052.31
2022-07-29T00:47:49.886Z,102054.44
2022-07-29T00:50:16.640Z,102052.63
2022-07-29T00:52:43.685Z,102039.59
2022-07-29T00:55:13.362Z,102043.53
2022-07-29T00:57:41.188Z,102044.47
2022-07-29T01:00:10.464Z,102046.84
2022-07-29T01:02:37.144Z,102042.03
2022-07-29T01:05:05.181Z,102040.34
2022-07-29T01:07:33.250Z,102038.63
2022-07-29T01:10:00.151Z,102031.47
2022-07-29T01:12:28.435Z,102034.97
2022-07-29T01:14:56.556Z,102027.41
2022-07-29T01:17:52.789Z,102038.94
2022-07-29T01:20:43.272Z,102034.56
2022-07-29T01:23:27.254Z,102034.06
2022-07-29T01:26:20.270Z,102030.06
2022-07-29T01:29:12.168Z,102025.94
2022-07-29T01:32:00.588Z,102036.84
2022-07-29T01:34:41.606Z,102034.47
2022-07-29T01:37:18.706Z,102033.19
2022-07-29T01:39:48.405Z,102029.13
2022-07-29T01:42:33.952Z,102030.63
2022-07-29T01:45:10.254Z,102034.16
2022-07-29T01:47:55.257Z,102025.19
2022-07-29T01:50:27.620Z,102027.97
2022-07-29T01:52:59.438Z,102026.47
2022-07-29T01:55:32.100Z,102021.44
2022-07-29T01:58:04.138Z,102022.19
2022-07-29T02:00:33.076Z,102023.47
2022-07-29T02:03:01.840Z,102020.13
2022-07-29T02:05:30.758Z,102020.78
2022-07-29T02:08:00.142Z,102015.56
2022-07-29T02:10:30.702Z,102012.03
2022-07-29T02:13:01.613Z,102018.44
2022-07-29T02:15:31.237Z,102013.94
2022-07-29T02:18:16.593Z,102013.09
2022-07-29T02:20:50.195Z,102010.72
2022-07-29T02:23:21.484Z,102019.81
2022-07-29T02:25:57.606Z,102016.19
2022-07-29T02:28:28.406Z,102026.22
2022-07-29T02:31:00.539Z,102021.94
2022-07-29T02:33:30.792Z,102023.09
2022-07-29T02:35:59.352Z,102015.94
2022-07-29T02:38:47.052Z,102017.66
2022-07-29T02:41:17.977Z,102023.22
2022-07-29T02:43:48.273Z,102009.09
2022-07-29T02:46:29.324Z,102017.88
2022-07-29T02:49:10.325Z,102009.84
2022-07-29T02:51:47.637Z,102010.72
2022-07-29T02:54:47.054Z,102006.63
2022-07-29T02:57:31.381Z,102002.47
2022-07-29T03:00:04.332Z,102004.16
2022-07-29T03:02:37.553Z,102002.81
2022-07-29T03:05:07.533Z,102001.41
2022-07-29T03:07:36.478Z,102001.59
2022-07-29T03:10:03.865Z,102003.22
2022-07-29T03:12:31.489Z,101997.88
2022-07-29T03:15:00.082Z,102003.00
2022-07-29T03:17:26.949Z,102007.94
2022-07-29T03:19:54.084Z,102005.25
2022-07-29T03:22:20.846Z,102002.69
2022-07-29T03:24:47.404Z,101995.53
2022-07-29T03:27:14.151Z,102001.19
2022-07-29T03:29:40.543Z,101993.19
2022-07-29T03:32:10.067Z,101995.97
2022-07-29T03:34:38.864Z,101988.69
2022-07-29T03:37:07.077Z,101992.13
2022-07-29T03:39:39.485Z,101991.25
2022-07-29T03:42:08.868Z,101985.06
2022-07-29T03:44:36.179Z,101978.88
2022-07-29T03:47:03.810Z,101971.38
2022-07-29T03:49:32.208Z,101977.56
2022-07-29T03:51:59.336Z,101978.13
2022-07-29T03:54:25.849Z,101978.97
2022-07-29T03:56:55.128Z,101979.06
2022-07-29T03:59:23.451Z,101972.34
2022-07-29T04:01:51.061Z,101985.47
2022-07-29T04:04:18.071Z,101972.13
2022-07-29T04:06:46.690Z,101980.25
2022-07-29T04:09:15.105Z,101975.97
2022-07-29T04:11:57.039Z,101980.75
2022-07-29T04:14:30.157Z,101984.72
2022-07-29T04:16:56.594Z,101984.94
2022-07-29T04:19:23.521Z,101985.34
2022-07-29T04:21:50.090Z,101985.16
2022-07-29T04:24:17.741Z,101980.44
2022-07-29T04:26:44.668Z,101990.94
2022-07-29T04:29:12.828Z,101983.66
2022-07-29T04:31:39.385Z,101980.25
2022-07-29T04:34:06.295Z,101987.50
2022-07-29T04:36:33.245Z,101980.44
2022-07-29T04:38:59.839Z,101981.97
2022-07-29T04:41:33.445Z,101984.31
2022-07-29T04:44:01.947Z,101988.06
2022-07-29T04:46:28.902Z,101981.13
2022-07-29T04:48:55.491Z,101988.28
2022-07-29T04:51:22.059Z,101973.22
2022-07-29T04:53:48.912Z,101981.13
2022-07-29T04:56:15.379Z,101982.72
2022-07-29T04:58:41.886Z,101972.56
2022-07-29T05:01:08.592Z,101973.97
2022-07-29T05:03:35.141Z,101973.75
2022-07-29T05:06:01.542Z,101975.34
2022-07-29T05:08:28.116Z,101970.44
2022-07-29T05:10:54.641Z,101973.22
2022-07-29T05:13:21.217Z,101971.94
2022-07-29T05:15:47.956Z,101981.78
2022-07-29T05:18:15.013Z,101960.09
2022-07-29T05:20:41.771Z,101987.13
2022-07-29T05:23:08.247Z,101985.31
2022-07-29T05:25:42.046Z,101986.25
2022-07-29T05:28:10.638Z,101987.13
2022-07-29T05:30:37.313Z,101984.25
2022-07-29T05:33:03.898Z,101982.22
2022-07-29T05:35:30.320Z,101989.16
2022-07-29T05:37:56.759Z,101986.59
2022-07-29T05:40:23.288Z,101982.97
2022-07-29T05:42:49.854Z,101996.75
2022-07-29T05:45:16.438Z,102000.50
2022-07-29T05:47:42.974Z,101999.53
2022-07-29T05:50:09.763Z,101997.94
2022-07-29T05:52:36.397Z,101999.53
2022-07-29T05:55:05.217Z,102001.13
2022-07-29T05:57:32.145Z,102004.31
2022-07-29T05:59:59.154Z,101994.47
2022-07-29T06:02:25.796Z,101992.22
2022-07-29T06:04:52.316Z,101990.41
2022-07-29T06:07:18.916Z,101994.56
2022-07-29T06:09:45.428Z,101992.00
2022-07-29T06:12:11.885Z,102001.31
2022-07-29T06:14:39.148Z,101995.19
2022-07-29T06:17:06.539Z,101997.53
2022-07-29T06:19:35.434Z,101999.03
2022-07-29T06:22:02.063Z,102008.66
2022-07-29T06:24:28.739Z,101988.97
2022-07-29T06:26:55.437Z,101994.97
2022-07-29T06:29:21.910Z,101987.16
2022-07-29T06:31:48.331Z,101981.47
2022-07-29T06:34:15.071Z,101984.88
2022-07-29T06:36:41.805Z,101990.44
2022-07-29T06:39:09.331Z,101996.09
2022-07-29T06:41:39.197Z,101996.56
2022-07-29T06:44:05.758Z,101990.75
2022-07-29T06:46:33.154Z,101994.81
2022-07-29T06:49:00.005Z,101993.22
2022-07-29T06:51:26.574Z,101997.63
2022-07-29T06:53:59.397Z,102001.53
2022-07-29T06:56:38.514Z,102003.03
2022-07-29T06:59:07.230Z,102009.25
2022-07-29T07:01:33.769Z,102011.69
2022-07-29T07:04:00.257Z,102011.13
2022-07-29T07:06:26.959Z,102022.13
2022-07-29T07:08:53.377Z,102030.34
2022-07-29T07:11:20.127Z,102030.38
2022-07-29T07:13:46.544Z,102035.31
2022-07-29T07:16:13.309Z,102036.69
2022-07-29T07:18:39.824Z,102045.53
2022-07-29T07:21:06.633Z,102041.44
2022-07-29T07:23:33.236Z,102039.84
2022-07-29T07:25:59.825Z,102034.00
2022-07-29T07:28:26.316Z,102030.47
2022-07-29T07:30:53.189Z,102034.91
2022-07-29T07:33:19.794Z,102023.63
2022-07-29T07:35:46.433Z,102021.59
2022-07-29T07:38:13.250Z,102021.59
2022-07-29T07:40:39.762Z,102018.59
2022-07-29T07:43:06.431Z,102007.88
2022-07-29T07:45:38.313Z,102011.66
2022-07-29T07:48:05.726Z,102004.19
2022-07-29T07:50:32.386Z,102008.09
2022-07-29T07:53:03.064Z,102014.41
2022-07-29T07:55:42.448Z,102006.75
2022-07-29T07:58:16.261Z,102004.41
2022-07-29T08:00:42.771Z,102004.44
2022-07-29T08:03:16.808Z,101999.47
2022-07-29T08:05:44.234Z,101996.63
2022-07-29T08:08:10.750Z,101998.91
2022-07-29T08:10:55.856Z,101996.66
2022-07-29T08:13:24.163Z,101982.50
2022-07-29T08:16:11.933Z,101998.53
2022-07-29T08:18:39.915Z,102000.66
2022-07-29T08:21:06.870Z,101986.19
2022-07-29T08:23:45.515Z,101989.56
2022-07-29T08:26:15.386Z,102000.31
2022-07-29T08:28:46.797Z,101996.91
2022-07-29T08:31:14.264Z,101993.00
2022-07-29T08:33:40.802Z,102003.06
2022-07-29T08:36:07.452Z,101996.59
2022-07-29T08:38:34.236Z,102005.63
2022-07-29T08:41:04.448Z,102006.72
2022-07-29T08:43:31.008Z,102006.97
2022-07-29T08:45:57.939Z,102013.69
2022-07-29T08:48:25.618Z,102010.31
2022-07-29T08:50:57.005Z,102017.78
2022-07-29T08:53:30.788Z,102012.09
2022-07-29T08:55:59.262Z,102021.22
2022-07-29T08:58:27.668Z,102016.34
2022-07-29T09:00:56.006Z,102015.94
2022-07-29T09:03:26.784Z,102013.81
2022-07-29T09:05:54.015Z,102023.84
2022-07-29T09:08:21.053Z,102027.25
2022-07-29T09:10:47.952Z,102034.78
2022-07-29T09:13:14.595Z,102029.94
2022-07-29T09:15:41.257Z,102025.78
2022-07-29T09:18:07.877Z,102016.97
2022-07-29T09:21:12.265Z,102017.47
2022-07-29T09:23:40.601Z,102021.75
2022-07-29T09:26:07.266Z,102029.25
2022-07-29T09:28:34.021Z,102010.72
2022-07-29T09:31:00.512Z,102020.38
2022-07-29T09:33:40.128Z,102021.81
2022-07-29T09:36:08.923Z,102012.97
2022-07-29T09:38:37.549Z,102013.16
2022-07-29T09:41:06.550Z,102003.38
2022-07-29T09:43:34.657Z,102006.88
2022-07-29T09:46:14.730Z,102012.97
2022-07-29T09:48:41.543Z,102014.38
2022-07-29T09:51:25.417Z,102017.22
2022-07-29T09:53:55.226Z,102013.84
2022-07-29T09:56:39.005Z,102012.53
2022-07-29T09:59:09.571Z,102016.13
2022-07-29T10:01:36.932Z,102016.31
2022-07-29T10:04:04.014Z,102003.72
2022-07-29T10:06:30.623Z,102007.13
2022-07-29T10:09:09.237Z,102018.59
2022-07-29T10:11:49.573Z,102007.69
2022-07-29T10:14:16.878Z,102019.09
2022-07-29T10:16:43.843Z,102007.19
2022-07-29T10:19:10.600Z,102010.66
2022-07-29T10:21:38.734Z,102015.41
2022-07-29T10:24:06.910Z,102017.50
2022-07-29T10:26:41.892Z,102015.09
2022-07-29T10:29:08.335Z,102007.19
2022-07-29T10:31:57.405Z,102014.16
2022-07-29T10:34:45.683Z,102010.75
2022-07-29T10:37:36.017Z,102011.31
2022-07-29T10:40:34.624Z,102015.41
2022-07-29T10:43:21.867Z,102012.97
2022-07-29T10:45:50.282Z,102024.22
2022-07-29T10:48:19.658Z,102023.66
2022-07-29T10:51:06.953Z,102019.97
2022-07-29T10:53:51.515Z,102014.44
2022-07-29T10:56:28.873Z,102012.72
2022-07-29T10:59:27.144Z,102019.53
2022-07-29T11:02:35.416Z,102022.41
2022-07-29T11:04:52.274Z,102022.66
2022-07-29T11:07:18.831Z,102020.69
2022-07-29T11:10:14.448Z,102008.34
2022-07-29T11:12:44.170Z,102016.84
2022-07-29T11:15:22.421Z,102015.41
2022-07-29T11:17:54.638Z,102012.31
2022-07-29T11:20:37.912Z,102014.00
2022-07-29T11:26:21.228Z,102024.66
2022-07-29T11:29:18.057Z,102021.44
2022-07-29T11:31:49.292Z,102012.75
2022-07-29T11:34:27.974Z,102014.44
2022-07-29T11:37:17.720Z,102020.84
2022-07-29T11:40:09.842Z,102012.56
2022-07-29T11:42:36.759Z,102025.22
2022-07-29T11:45:42.697Z,102019.28
2022-07-29T11:48:29.099Z,102018.84
2022-07-29T11:50:48.536Z,102015.72
2022-07-29T11:53:16.197Z,102016.84
2022-07-29T11:55:51.514Z,102009.38
2022-07-29T11:58:25.090Z,102011.59
2022-07-29T12:00:52.788Z,102019.13
2022-07-29T12:03:32.816Z,102007.22
2022-07-29T12:06:01.534Z,102016.13
2022-07-29T12:08:28.624Z,102021.84
2022-07-29T12:10:55.188Z,102019.56
2022-07-29T12:13:22.383Z,102017.50
2022-07-29T12:16:00.121Z,102018.88
2022-07-29T12:18:28.792Z,102021.09
2022-07-29T12:21:05.600Z,102015.59
2022-07-29T12:23:34.409Z,102012.56
2022-07-29T12:26:04.704Z,102019.38
2022-07-29T12:28:38.557Z,102015.44
2022-07-29T12:31:05.960Z,102011.59
2022-07-29T12:33:32.769Z,102021.25
2022-07-29T12:36:07.621Z,102009.81
2022-07-29T12:38:36.758Z,102011.16
2022-07-29T12:41:04.673Z,102018.88
2022-07-29T12:43:31.509Z,102015.13
2022-07-29T12:45:58.906Z,102005.53
2022-07-29T12:48:42.772Z,102020.03
2022-07-29T12:51:12.421Z,102009.63
2022-07-29T12:53:39.369Z,102004.91
2022-07-29T12:56:20.749Z,102016.69
2022-07-29T12:58:53.178Z,102016.06
2022-07-29T13:01:21.155Z,102004.63
2022-07-29T13:03:56.823Z,101992.81
2022-07-29T13:06:51.136Z,102001.28
2022-07-29T13:09:24.002Z,101994.44
2022-07-29T13:11:54.428Z,101999.88
2022-07-29T13:14:44.762Z,102005.19
2022-07-29T13:17:19.057Z,102004.78
2022-07-29T13:19:53.916Z,101995.06
2022-07-29T13:22:22.900Z,101998.84
2022-07-29T13:24:55.023Z,102001.75
2022-07-29T13:27:23.856Z,101998.84
2022-07-29T13:29:53.865Z,102004.00
2022-07-29T13:32:28.630Z,101999.97
2022-07-29T13:35:04.928Z,102001.97
2022-07-29T13:37:34.857Z,102003.44
2022-07-29T13:40:04.002Z,102006.22
2022-07-29T13:42:30.704Z,102005.13
2022-07-29T13:44:57.659Z,101999.78
2022-07-29T13:47:32.592Z,101997.53
2022-07-29T13:50:02.270Z,101996.19
2022-07-29T13:52:29.030Z,102000.88
2022-07-29T13:54:55.461Z,102001.97
2022-07-29T13:57:21.887Z,101992.69
2022-07-29T13:59:53.723Z,101997.50
2022-07-29T14:02:20.923Z,101989.44
2022-07-29T14:04:47.427Z,101989.75
2022-07-29T14:07:16.386Z,101994.94
2022-07-29T14:09:43.220Z,101991.53
2022-07-29T14:12:10.040Z,102000.34
2022-07-29T14:14:37.550Z,101990.38
2022-07-29T14:17:04.994Z,101993.09
2022-07-29T14:19:33.169Z,101989.22
2022-07-29T14:22:00.171Z,101988.72
2022-07-29T14:24:27.150Z,101990.22
2022-07-29T14:26:53.625Z,101988.28
2022-07-29T14:29:20.182Z,101987.13
2022-07-29T14:31:47.036Z,101995.56
2022-07-29T14:34:13.532Z,101985.03
2022-07-29T14:36:40.343Z,101985.81
2022-07-29T14:39:06.808Z,101980.97
2022-07-29T14:41:33.737Z,101979.41
2022-07-29T14:44:03.045Z,101982.16
2022-07-29T14:46:29.763Z,101992.19
2022-07-29T14:48:56.698Z,101981.63
2022-07-29T14:51:23.226Z,101984.69
2022-07-29T14:53:49.830Z,101981.59
2022-07-29T14:56:35.921Z,101988.22
2022-07-29T14:59:02.851Z,101984.25
2022-07-29T15:01:30.060Z,101986.56
2022-07-29T15:03:59.656Z,101986.41
2022-07-29T15:06:27.121Z,101983.16
2022-07-29T15:08:53.513Z,101978.19
2022-07-29T15:11:19.977Z,101968.97
2022-07-29T15:13:46.710Z,101976.84
2022-07-29T15:16:13.250Z,101978.19
2022-07-29T15:18:39.962Z,101975.59
2022-07-29T15:21:07.882Z,101973.28
2022-07-29T15:23:37.060Z,101979.75
2022-07-29T15:26:05.034Z,101971.03
2022-07-29T15:28:31.578Z,101974.44
2022-07-29T15:30:58.478Z,101977.84
2022-07-29T15:33:24.982Z,101963.94
2022-07-29T15:35:51.531Z,101972.09
2022-07-29T15:38:18.280Z,101963.59
2022-07-29T15:40:45.337Z,101974.25
2022-07-29T15:43:12.529Z,101977.59
2022-07-29T15:46:02.616Z,101966.41
2022-07-29T15:48:29.513Z,101976.25
2022-07-29T15:50:56.232Z,101983.09
2022-07-29T15:53:22.857Z,101970.72
2022-07-29T15:55:49.461Z,101963.28
2022-07-29T15:58:15.954Z,101972.91
2022-07-29T16:00:42.544Z,101957.44
2022-07-29T16:03:08.974Z,101964.78
2022-07-29T16:05:35.425Z,101956.28
2022-07-29T16:08:04.148Z,101964.41
2022-07-29T16:10:30.585Z,101968.13
2022-07-29T16:12:57.445Z,101961.75
2022-07-29T16:15:24.254Z,101957.19
2022-07-29T16:17:50.749Z,101961.06
2022-07-29T16:20:17.658Z,101958.63
2022-07-29T16:22:44.310Z,101952.38
2022-07-29T16:25:10.836Z,101956.72
2022-07-29T16:27:38.294Z,101951.56
2022-07-29T16:30:06.059Z,101955.13
2022-07-29T16:32:34.913Z,101947.47
2022-07-29T16:35:02.709Z,101959.69
2022-07-29T16:37:33.422Z,101963.56
2022-07-29T16:40:00.213Z,101967.44
2022-07-29T16:42:45.504Z,101963.97
2022-07-29T16:45:13.566Z,101966.75
2022-07-29T16:47:42.622Z,101967.84
2022-07-29T16:50:09.358Z,101957.28
2022-07-29T16:52:37.515Z,101963.00
2022-07-29T16:55:04.695Z,101966.25
2022-07-29T16:57:31.204Z,101963.22
2022-07-29T16:59:57.817Z,101960.53
2022-07-29T17:02:24.323Z,101968.47
2022-07-29T17:04:51.316Z,101956.59
2022-07-29T17:07:17.755Z,101966.63
2022-07-29T17:09:44.244Z,101958.97
2022-07-29T17:12:10.754Z,101965.38
2022-07-29T17:14:38.239Z,101964.78
2022-07-29T17:17:05.593Z,101969.19
2022-07-29T17:19:43.217Z,101964.09
2022-07-29T17:22:14.324Z,101963.28
2022-07-29T17:24:42.952Z,101961.44
2022-07-29T17:27:10.343Z,101957.28
2022-07-29T17:29:37.314Z,101962.25
2022-07-29T17:32:04.118Z,101967.84
2022-07-29T17:34:36.105Z,101970.44
2022-07-29T17:37:03.205Z,101967.59
2022-07-29T17:39:29.809Z,101974.44
2022-07-29T17:41:57.849Z,101966.97
2022-07-29T17:44:27.441Z,101963.94
2022-07-29T17:46:54.001Z,101974.84
2022-07-29T17:49:20.743Z,101976.34
2022-07-29T17:51:47.367Z,101976.06
2022-07-29T17:54:14.166Z,101976.19
2022-07-29T17:56:41.473Z,101979.91
2022-07-29T17:59:10.013Z,101983.31
2022-07-29T18:01:38.274Z,101980.91
2022-07-29T18:04:05.022Z,101974.50
2022-07-29T18:06:31.566Z,101985.47
2022-07-29T18:09:00.852Z,101989.00
2022-07-29T18:11:27.634Z,101980.91
2022-07-29T18:13:54.137Z,101979.81
2022-07-29T18:16:21.885Z,101976.25
2022-07-29T18:18:48.599Z,101975.00
2022-07-29T18:21:15.081Z,101975.63
2022-07-29T18:23:42.316Z,101974.78
2022-07-29T18:26:09.774Z,101987.88
2022-07-29T18:28:36.289Z,101979.03
2022-07-29T18:31:02.906Z,101991.69
2022-07-29T18:33:29.497Z,101982.84
2022-07-29T18:36:11.195Z,101995.63
2022-07-29T18:38:39.852Z,101995.66
2022-07-29T18:41:08.419Z,101990.13
2022-07-29T18:43:36.177Z,101991.44
2022-07-29T18:46:02.750Z,101992.31
2022-07-29T18:48:29.293Z,101985.34
2022-07-29T18:50:55.934Z,101989.31
2022-07-29T18:53:25.112Z,101997.41
2022-07-29T18:55:51.723Z,101998.53
2022-07-29T18:58:18.187Z,102002.38
2022-07-29T19:00:44.727Z,102009.03
2022-07-29T19:03:11.425Z,102008.91
2022-07-29T19:05:38.232Z,102008.91
2022-07-29T19:08:04.937Z,102011.13
2022-07-29T19:10:32.533Z,102009.41
2022-07-29T19:12:59.415Z,102006.56
2022-07-29T19:15:26.081Z,102013.19
2022-07-29T19:17:52.568Z,102012.63
2022-07-29T19:20:19.209Z,102017.53
2022-07-29T19:22:46.455Z,102021.09
2022-07-29T19:25:13.325Z,102021.63
2022-07-29T19:27:41.788Z,102019.94
2022-07-29T19:30:09.602Z,102039.06
2022-07-29T19:32:36.535Z,102038.88
2022-07-29T19:35:22.031Z,102047.34
2022-07-29T19:37:48.666Z,102057.94
2022-07-29T19:40:16.219Z,102052.22
2022-07-29T19:42:43.480Z,102061.81
2022-07-29T19:45:11.657Z,102062.22
2022-07-29T19:47:38.212Z,102065.91
2022-07-29T19:50:05.446Z,102068.28
2022-07-29T19:52:32.129Z,102068.53
2022-07-29T19:54:59.829Z,102071.56
2022-07-29T19:57:28.496Z,102070.25
2022-07-29T20:00:11.134Z,102069.78
2022-07-29T20:02:39.343Z,102079.31
2022-07-29T20:05:06.085Z,102081.41
2022-07-29T20:07:32.589Z,102070.84
2022-07-29T20:09:59.283Z,102078.91
2022-07-29T20:12:25.926Z,102073.97
2022-07-29T20:14:53.073Z,102084.00
2022-07-29T20:17:25.299Z,102078.53
2022-07-29T20:19:52.883Z,102071.25
2022-07-29T20:22:20.800Z,102079.91
2022-07-29T20:24:48.409Z,102081.31
2022-07-29T20:27:14.963Z,102086.81
2022-07-29T20:29:41.510Z,102073.13
2022-07-29T20:32:08.082Z,102087.78
2022-07-29T20:34:34.625Z,102083.44
2022-07-29T20:37:02.744Z,102084.88
2022-07-29T20:39:29.422Z,102081.34
2022-07-29T20:41:56.190Z,102093.31
2022-07-29T20:44:24.255Z,102099.41
2022-07-29T20:46:50.895Z,102104.91
2022-07-29T20:49:17.477Z,102101.63
2022-07-29T20:51:44.315Z,102107.13
2022-07-29T20:54:11.081Z,102109.31
2022-07-29T20:56:38.114Z,102107.75
2022-07-29T20:59:04.843Z,102107.09
2022-07-29T21:01:31.334Z,102102.97
2022-07-29T21:03:57.965Z,102115.53
2022-07-29T21:06:24.452Z,102110.78
2022-07-29T21:08:50.842Z,102122.25
2022-07-29T21:11:17.828Z,102117.50
2022-07-29T21:14:04.440Z,102112.72
2022-07-29T21:16:33.293Z,102109.56
2022-07-29T21:18:59.797Z,102119.19
2022-07-29T21:21:26.858Z,102112.94
2022-07-29T21:23:53.478Z,102104.16
2022-07-29T21:26:20.109Z,102113.19
2022-07-29T21:28:46.627Z,102110.50
2022-07-29T21:31:17.441Z,102114.03
2022-07-29T21:33:48.601Z,102111.34
2022-07-29T21:36:46.391Z,102101.09
2022-07-29T21:39:06.947Z,102109.50
2022-07-29T21:41:34.428Z,102107.56
2022-07-29T21:44:01.394Z,102102.91
2022-07-29T21:46:28.150Z,102088.75
2022-07-29T21:48:55.046Z,102094.50
2022-07-29T21:51:21.519Z,102100.34
2022-07-29T21:53:52.418Z,102110.69
2022-07-29T21:56:21.254Z,102103.38
2022-07-29T21:58:50.025Z,102106.31
2022-07-29T22:01:16.515Z,102105.56
2022-07-29T22:03:45.797Z,102103.88
2022-07-29T22:06:17.868Z,102110.31
2022-07-29T22:08:45.633Z,102098.63
2022-07-29T22:11:13.479Z,102106.16
2022-07-29T22:13:41.547Z,102105.31
2022-07-29T22:16:10.042Z,102099.22
2022-07-29T22:18:36.584Z,102100.19
2022-07-29T22:21:03.127Z,102101.84
2022-07-29T22:23:29.537Z,102094.69
2022-07-29T22:25:56.082Z,102089.31
2022-07-29T22:28:22.605Z,102095.53
2022-07-29T22:30:49.299Z,102090.66
2022-07-29T22:33:17.810Z,102091.53
2022-07-29T22:35:45.718Z,102091.81
2022-07-29T22:38:15.257Z,102085.75
2022-07-29T22:40:41.704Z,102094.56
2022-07-29T22:43:08.203Z,102093.59
2022-07-29T22:45:34.857Z,102102.81
2022-07-29T22:48:01.434Z,102089.00
2022-07-29T22:50:29.763Z,102089.34
2022-07-29T22:52:56.249Z,102094.69
2022-07-29T22:55:22.875Z,102099.09
2022-07-29T22:57:49.341Z,102099.00
2022-07-29T23:00:16.254Z,102091.47
2022-07-29T23:02:42.773Z,102107.31
2022-07-29T23:05:10.457Z,102107.44
2022-07-29T23:07:36.973Z,102102.00
2022-07-29T23:10:04.871Z,102103.72
2022-07-29T23:12:31.505Z,102101.38
2022-07-29T23:14:57.986Z,102091.63
2022-07-29T23:17:24.480Z,102100.75
2022-07-29T23:19:51.095Z,102099.16
2022-07-29T23:22:18.456Z,102103.91
2022-07-29T23:24:45.391Z,102103.63
2022-07-29T23:27:11.840Z,102097.28
2022-07-29T23:29:38.303Z,102097.41
2022-07-29T23:32:05.225Z,102095.59
2022-07-29T23:34:31.864Z,102099.13
2022-07-29T23:36:59.207Z,102098.16
2022-07-29T23:39:25.839Z,102099.59
2022-07-29T23:41:52.393Z,102100.03
2022-07-29T23:44:18.859Z,102096.97
2022-07-29T23:46:45.453Z,102085.63
2022-07-29T23:49:12.350Z,102095.09
2022-07-29T23:51:38.854Z,102096.78
2022-07-29T23:54:05.410Z,102098.97
2022-07-29T23:56:31.879Z,102096.50
2022-07-29T23:58:58.825Z,102098.56
